sensor_id;sensor_type;location;lat;lon;timestamp;P1;durP1;ratioP1;P2;durP2;ratioP2
46723;SDS011;32463;48.298;11.620;2022-12-05T00:04:02;20.75;;;10.30;;
46723;SDS011;32463;48.298;11.620;2022-12-05T00:06:31;21.35;;;9.85;;
46723;SDS011;32463;48.298;11.620;2022-12-05T00:08:59;20.08;;;10.05;;
46723;SDS011;32463;48.298;11.620;2022-12-05T00:11:27;23.50;;;10.77;;
46723;SDS011;32463;48.298;11.620;2022-12-05T00:13:56;21.52;;;10.98;;
46723;SDS011;32463;48.298;11.620;2022-12-05T00:16:25;23.90;;;10.48;;
46723;SDS011;32463;48.298;11.620;2022-12-05T00:18:53;26.67;;;11.95;;
46723;SDS011;32463;48.298;11.620;2022-12-05T00:21:21;25.42;;;11.93;;
46723;SDS011;32463;48.298;11.620;2022-12-05T00:23:49;23.17;;;10.75;;
46723;SDS011;32463;48.298;11.620;2022-12-05T00:26:17;19.58;;;10.18;;
46723;SDS011;32463;48.298;11.620;2022-12-05T00:28:44;21.83;;;11.23;;
46723;SDS011;32463;48.298;11.620;2022-12-05T00:31:11;22.27;;;10.02;;
46723;SDS011;32463;48.298;11.620;2022-12-05T00:33:42;26.20;;;11.50;;
46723;SDS011;32463;48.298;11.620;2022-12-05T00:36:11;25.23;;;10.85;;
46723;SDS011;32463;48.298;11.620;2022-12-05T00:38:39;21.17;;;10.32;;
46723;SDS011;32463;48.298;11.620;2022-12-05T00:41:07;20.33;;;10.40;;
46723;SDS011;32463;48.298;11.620;2022-12-05T00:43:36;19.98;;;10.60;;
46723;SDS011;32463;48.298;11.620;2022-12-05T00:46:07;22.23;;;11.27;;
46723;SDS011;32463;48.298;11.620;2022-12-05T00:48:36;23.13;;;10.93;;
46723;SDS011;32463;48.298;11.620;2022-12-05T00:51:04;28.05;;;11.35;;
46723;SDS011;32463;48.298;11.620;2022-12-05T00:53:36;21.58;;;10.63;;
46723;SDS011;32463;48.298;11.620;2022-12-05T00:56:04;23.25;;;11.07;;
46723;SDS011;32463;48.298;11.620;2022-12-05T00:58:39;23.77;;;10.90;;
46723;SDS011;32463;48.298;11.620;2022-12-05T01:01:06;19.63;;;10.05;;
46723;SDS011;32463;48.298;11.620;2022-12-05T01:03:34;20.73;;;10.82;;
46723;SDS011;32463;48.298;11.620;2022-12-05T01:06:00;22.48;;;10.40;;
46723;SDS011;32463;48.298;11.620;2022-12-05T01:08:27;21.85;;;10.68;;
46723;SDS011;32463;48.298;11.620;2022-12-05T01:10:54;25.77;;;11.13;;
46723;SDS011;32463;48.298;11.620;2022-12-05T01:13:21;27.70;;;11.15;;
46723;SDS011;32463;48.298;11.620;2022-12-05T01:15:48;28.23;;;10.95;;
46723;SDS011;32463;48.298;11.620;2022-12-05T01:18:15;23.30;;;11.18;;
46723;SDS011;32463;48.298;11.620;2022-12-05T01:20:42;23.60;;;10.07;;
46723;SDS011;32463;48.298;11.620;2022-12-05T01:23:10;21.15;;;10.80;;
46723;SDS011;32463;48.298;11.620;2022-12-05T01:25:40;21.60;;;10.45;;
46723;SDS011;32463;48.298;11.620;2022-12-05T01:28:11;20.38;;;10.05;;
46723;SDS011;32463;48.298;11.620;2022-12-05T01:30:39;21.52;;;10.18;;
46723;SDS011;32463;48.298;11.620;2022-12-05T01:33:08;21.95;;;10.52;;
46723;SDS011;32463;48.298;11.620;2022-12-05T01:35:35;20.98;;;10.52;;
46723;SDS011;32463;48.298;11.620;2022-12-05T01:38:04;22.08;;;10.73;;
46723;SDS011;32463;48.298;11.620;2022-12-05T01:40:31;21.70;;;10.02;;
46723;SDS011;32463;48.298;11.620;2022-12-05T01:43:00;23.55;;;11.00;;
46723;SDS011;32463;48.298;11.620;2022-12-05T01:45:31;21.95;;;10.70;;
46723;SDS011;32463;48.298;11.620;2022-12-05T01:48:01;24.50;;;10.30;;
46723;SDS011;32463;48.298;11.620;2022-12-05T01:50:31;25.08;;;11.80;;
46723;SDS011;32463;48.298;11.620;2022-12-05T01:52:59;24.92;;;10.80;;
46723;SDS011;32463;48.298;11.620;2022-12-05T01:55:26;22.73;;;10.82;;
46723;SDS011;32463;48.298;11.620;2022-12-05T01:57:54;22.48;;;9.40;;
46723;SDS011;32463;48.298;11.620;2022-12-05T02:00:22;25.08;;;11.70;;
46723;SDS011;32463;48.298;11.620;2022-12-05T02:02:50;21.58;;;10.50;;
46723;SDS011;32463;48.298;11.620;2022-12-05T02:05:26;22.55;;;11.20;;
46723;SDS011;32463;48.298;11.620;2022-12-05T02:07:54;23.25;;;11.40;;
46723;SDS011;32463;48.298;11.620;2022-12-05T02:10:24;25.60;;;11.88;;
46723;SDS011;32463;48.298;11.620;2022-12-05T02:12:52;27.08;;;12.15;;
46723;SDS011;32463;48.298;11.620;2022-12-05T02:34:36;30.50;;;11.93;;
46723;SDS011;32463;48.298;11.620;2022-12-05T02:37:16;26.95;;;10.73;;
46723;SDS011;32463;48.298;11.620;2022-12-05T02:39:53;26.98;;;11.30;;
46723;SDS011;32463;48.298;11.620;2022-12-05T02:42:39;28.92;;;11.82;;
46723;SDS011;32463;48.298;11.620;2022-12-05T02:45:12;25.25;;;11.00;;
46723;SDS011;32463;48.298;11.620;2022-12-05T02:47:46;24.45;;;11.57;;
46723;SDS011;32463;48.298;11.620;2022-12-05T02:50:16;30.17;;;11.68;;
46723;SDS011;32463;48.298;11.620;2022-12-05T02:52:46;27.10;;;11.68;;
46723;SDS011;32463;48.298;11.620;2022-12-05T02:55:14;31.17;;;11.60;;
46723;SDS011;32463;48.298;11.620;2022-12-05T02:57:45;29.10;;;12.00;;
46723;SDS011;32463;48.298;11.620;2022-12-05T03:00:18;32.45;;;12.00;;
46723;SDS011;32463;48.298;11.620;2022-12-05T03:02:44;28.90;;;11.95;;
46723;SDS011;32463;48.298;11.620;2022-12-05T03:05:21;40.30;;;15.63;;
46723;SDS011;32463;48.298;11.620;2022-12-05T03:07:51;24.85;;;11.48;;
46723;SDS011;32463;48.298;11.620;2022-12-05T03:10:22;28.38;;;10.98;;
46723;SDS011;32463;48.298;11.620;2022-12-05T03:12:54;28.50;;;10.38;;
46723;SDS011;32463;48.298;11.620;2022-12-05T03:15:33;32.25;;;12.40;;
46723;SDS011;32463;48.298;11.620;2022-12-05T03:18:10;27.52;;;11.25;;
46723;SDS011;32463;48.298;11.620;2022-12-05T03:20:46;29.75;;;11.13;;
46723;SDS011;32463;48.298;11.620;2022-12-05T03:23:37;32.88;;;11.63;;
46723;SDS011;32463;48.298;11.620;2022-12-05T03:26:17;33.20;;;12.55;;
46723;SDS011;32463;48.298;11.620;2022-12-05T03:29:09;27.25;;;11.60;;
46723;SDS011;32463;48.298;11.620;2022-12-05T03:31:41;32.92;;;12.70;;
46723;SDS011;32463;48.298;11.620;2022-12-05T03:34:24;35.47;;;12.70;;
46723;SDS011;32463;48.298;11.620;2022-12-05T03:37:06;29.27;;;11.73;;
46723;SDS011;32463;48.298;11.620;2022-12-05T03:39:38;31.88;;;12.32;;
46723;SDS011;32463;48.298;11.620;2022-12-05T03:42:13;33.50;;;13.00;;
46723;SDS011;32463;48.298;11.620;2022-12-05T03:44:49;39.30;;;14.65;;
46723;SDS011;32463;48.298;11.620;2022-12-05T03:47:32;36.92;;;13.60;;
46723;SDS011;32463;48.298;11.620;2022-12-05T03:50:16;33.13;;;13.68;;
46723;SDS011;32463;48.298;11.620;2022-12-05T03:53:03;30.33;;;13.02;;
46723;SDS011;32463;48.298;11.620;2022-12-05T03:55:34;33.03;;;14.45;;
46723;SDS011;32463;48.298;11.620;2022-12-05T03:58:08;33.75;;;14.77;;
46723;SDS011;32463;48.298;11.620;2022-12-05T04:00:41;33.85;;;14.32;;
46723;SDS011;32463;48.298;11.620;2022-12-05T04:03:12;30.83;;;13.60;;
46723;SDS011;32463;48.298;11.620;2022-12-05T04:08:16;29.70;;;13.10;;
46723;SDS011;32463;48.298;11.620;2022-12-05T04:11:02;31.42;;;13.95;;
46723;SDS011;32463;48.298;11.620;2022-12-05T04:13:33;28.52;;;13.35;;
46723;SDS011;32463;48.298;11.620;2022-12-05T04:16:06;38.17;;;15.23;;
46723;SDS011;32463;48.298;11.620;2022-12-05T04:18:58;31.77;;;13.13;;
46723;SDS011;32463;48.298;11.620;2022-12-05T04:21:36;30.85;;;13.82;;
46723;SDS011;32463;48.298;11.620;2022-12-05T04:24:08;33.65;;;13.73;;
46723;SDS011;32463;48.298;11.620;2022-12-05T04:27:05;29.80;;;13.05;;
46723;SDS011;32463;48.298;11.620;2022-12-05T04:29:45;26.80;;;12.55;;
46723;SDS011;32463;48.298;11.620;2022-12-05T04:32:26;28.05;;;12.50;;
46723;SDS011;32463;48.298;11.620;2022-12-05T04:35:02;23.30;;;11.10;;
46723;SDS011;32463;48.298;11.620;2022-12-05T04:37:34;23.88;;;11.18;;
46723;SDS011;32463;48.298;11.620;2022-12-05T04:40:07;23.40;;;11.27;;
46723;SDS011;32463;48.298;11.620;2022-12-05T04:42:37;21.73;;;10.43;;
46723;SDS011;32463;48.298;11.620;2022-12-05T04:45:08;25.45;;;10.50;;
46723;SDS011;32463;48.298;11.620;2022-12-05T04:47:40;23.60;;;10.88;;
46723;SDS011;32463;48.298;11.620;2022-12-05T04:52:39;22.95;;;9.93;;
46723;SDS011;32463;48.298;11.620;2022-12-05T04:55:13;24.23;;;10.32;;
46723;SDS011;32463;48.298;11.620;2022-12-05T04:58:01;25.60;;;11.18;;
46723;SDS011;32463;48.298;11.620;2022-12-05T05:00:28;21.85;;;10.90;;
46723;SDS011;32463;48.298;11.620;2022-12-05T05:03:03;25.48;;;11.63;;
46723;SDS011;32463;48.298;11.620;2022-12-05T05:05:34;23.20;;;11.05;;
46723;SDS011;32463;48.298;11.620;2022-12-05T05:08:02;24.80;;;10.80;;
46723;SDS011;32463;48.298;11.620;2022-12-05T05:10:32;26.27;;;11.10;;
46723;SDS011;32463;48.298;11.620;2022-12-05T05:13:05;26.80;;;11.32;;
46723;SDS011;32463;48.298;11.620;2022-12-05T05:15:32;26.27;;;12.45;;
46723;SDS011;32463;48.298;11.620;2022-12-05T05:18:00;25.27;;;11.77;;
46723;SDS011;32463;48.298;11.620;2022-12-05T05:20:26;23.40;;;11.18;;
46723;SDS011;32463;48.298;11.620;2022-12-05T05:22:53;26.40;;;11.68;;
46723;SDS011;32463;48.298;11.620;2022-12-05T05:25:21;27.23;;;12.48;;
46723;SDS011;32463;48.298;11.620;2022-12-05T05:27:49;26.88;;;11.95;;
46723;SDS011;32463;48.298;11.620;2022-12-05T05:30:18;28.00;;;12.40;;
46723;SDS011;32463;48.298;11.620;2022-12-05T05:32:45;25.63;;;11.82;;
46723;SDS011;32463;48.298;11.620;2022-12-05T05:35:12;28.48;;;12.15;;
46723;SDS011;32463;48.298;11.620;2022-12-05T05:37:39;28.23;;;12.68;;
46723;SDS011;32463;48.298;11.620;2022-12-05T05:40:06;29.00;;;13.15;;
46723;SDS011;32463;48.298;11.620;2022-12-05T05:42:34;25.30;;;11.70;;
46723;SDS011;32463;48.298;11.620;2022-12-05T05:45:01;25.33;;;11.90;;
46723;SDS011;32463;48.298;11.620;2022-12-05T05:47:28;26.42;;;11.82;;
46723;SDS011;32463;48.298;11.620;2022-12-05T05:49:54;24.67;;;11.32;;
46723;SDS011;32463;48.298;11.620;2022-12-05T05:52:21;27.50;;;12.90;;
46723;SDS011;32463;48.298;11.620;2022-12-05T05:54:47;24.45;;;11.65;;
46723;SDS011;32463;48.298;11.620;2022-12-05T05:57:14;25.02;;;11.70;;
46723;SDS011;32463;48.298;11.620;2022-12-05T05:59:40;28.05;;;11.50;;
46723;SDS011;32463;48.298;11.620;2022-12-05T06:02:06;25.55;;;12.27;;
46723;SDS011;32463;48.298;11.620;2022-12-05T06:04:33;32.83;;;13.85;;
46723;SDS011;32463;48.298;11.620;2022-12-05T06:07:00;27.45;;;12.77;;
46723;SDS011;32463;48.298;11.620;2022-12-05T06:09:26;29.55;;;12.57;;
46723;SDS011;32463;48.298;11.620;2022-12-05T06:11:53;27.15;;;13.13;;
46723;SDS011;32463;48.298;11.620;2022-12-05T06:14:19;31.23;;;13.75;;
46723;SDS011;32463;48.298;11.620;2022-12-05T06:16:46;33.83;;;12.98;;
46723;SDS011;32463;48.298;11.620;2022-12-05T06:19:13;29.27;;;13.18;;
46723;SDS011;32463;48.298;11.620;2022-12-05T06:21:39;29.15;;;12.27;;
46723;SDS011;32463;48.298;11.620;2022-12-05T06:24:06;31.52;;;14.68;;
46723;SDS011;32463;48.298;11.620;2022-12-05T06:26:33;35.15;;;13.32;;
46723;SDS011;32463;48.298;11.620;2022-12-05T06:28:59;29.80;;;14.13;;
46723;SDS011;32463;48.298;11.620;2022-12-05T06:31:25;33.53;;;13.60;;
46723;SDS011;32463;48.298;11.620;2022-12-05T06:33:58;33.30;;;14.23;;
46723;SDS011;32463;48.298;11.620;2022-12-05T06:36:26;29.17;;;12.90;;
46723;SDS011;32463;48.298;11.620;2022-12-05T06:38:53;32.80;;;13.60;;
46723;SDS011;32463;48.298;11.620;2022-12-05T06:41:22;32.70;;;13.38;;
46723;SDS011;32463;48.298;11.620;2022-12-05T06:43:53;30.52;;;14.38;;
46723;SDS011;32463;48.298;11.620;2022-12-05T06:46:20;38.92;;;17.83;;
46723;SDS011;32463;48.298;11.620;2022-12-05T06:48:50;34.55;;;15.13;;
46723;SDS011;32463;48.298;11.620;2022-12-05T06:51:18;37.70;;;14.75;;
46723;SDS011;32463;48.298;11.620;2022-12-05T06:53:44;36.55;;;13.70;;
46723;SDS011;32463;48.298;11.620;2022-12-05T06:56:12;35.90;;;12.90;;
46723;SDS011;32463;48.298;11.620;2022-12-05T06:58:41;31.88;;;13.27;;
46723;SDS011;32463;48.298;11.620;2022-12-05T07:01:16;32.28;;;14.18;;
46723;SDS011;32463;48.298;11.620;2022-12-05T07:04:01;28.90;;;11.85;;
46723;SDS011;32463;48.298;11.620;2022-12-05T07:06:29;30.05;;;12.43;;
46723;SDS011;32463;48.298;11.620;2022-12-05T07:08:56;58.83;;;27.02;;
46723;SDS011;32463;48.298;11.620;2022-12-05T07:11:22;72.50;;;29.92;;
46723;SDS011;32463;48.298;11.620;2022-12-05T07:13:49;44.17;;;16.95;;
46723;SDS011;32463;48.298;11.620;2022-12-05T07:16:16;32.45;;;14.50;;
46723;SDS011;32463;48.298;11.620;2022-12-05T07:18:42;32.45;;;14.70;;
46723;SDS011;32463;48.298;11.620;2022-12-05T07:21:10;31.67;;;14.73;;
46723;SDS011;32463;48.298;11.620;2022-12-05T07:23:40;44.15;;;16.95;;
46723;SDS011;32463;48.298;11.620;2022-12-05T07:26:09;51.25;;;20.00;;
46723;SDS011;32463;48.298;11.620;2022-12-05T07:28:38;66.82;;;29.48;;
46723;SDS011;32463;48.298;11.620;2022-12-05T07:31:05;59.97;;;23.55;;
46723;SDS011;32463;48.298;11.620;2022-12-05T07:33:33;51.03;;;24.23;;
46723;SDS011;32463;48.298;11.620;2022-12-05T07:36:01;49.95;;;21.65;;
46723;SDS011;32463;48.298;11.620;2022-12-05T07:38:29;39.80;;;16.95;;
46723;SDS011;32463;48.298;11.620;2022-12-05T07:40:57;33.70;;;16.13;;
46723;SDS011;32463;48.298;11.620;2022-12-05T07:43:23;37.50;;;16.30;;
46723;SDS011;32463;48.298;11.620;2022-12-05T07:45:51;33.28;;;14.32;;
46723;SDS011;32463;48.298;11.620;2022-12-05T07:48:17;37.40;;;14.02;;
46723;SDS011;32463;48.298;11.620;2022-12-05T07:50:44;37.63;;;14.13;;
46723;SDS011;32463;48.298;11.620;2022-12-05T07:53:11;36.97;;;15.13;;
46723;SDS011;32463;48.298;11.620;2022-12-05T07:55:38;35.45;;;15.30;;
46723;SDS011;32463;48.298;11.620;2022-12-05T07:58:05;36.40;;;14.98;;
46723;SDS011;32463;48.298;11.620;2022-12-05T08:00:32;43.50;;;15.50;;
46723;SDS011;32463;48.298;11.620;2022-12-05T08:03:00;42.90;;;15.77;;
46723;SDS011;32463;48.298;11.620;2022-12-05T08:05:28;42.78;;;16.48;;
46723;SDS011;32463;48.298;11.620;2022-12-05T08:07:54;73.10;;;18.95;;
46723;SDS011;32463;48.298;11.620;2022-12-05T08:10:21;34.85;;;15.80;;
46723;SDS011;32463;48.298;11.620;2022-12-05T08:12:47;39.58;;;15.45;;
46723;SDS011;32463;48.298;11.620;2022-12-05T08:15:14;34.88;;;14.05;;
46723;SDS011;32463;48.298;11.620;2022-12-05T08:17:40;36.63;;;14.88;;
46723;SDS011;32463;48.298;11.620;2022-12-05T08:20:07;32.42;;;13.00;;
46723;SDS011;32463;48.298;11.620;2022-12-05T08:22:34;37.05;;;14.02;;
46723;SDS011;32463;48.298;11.620;2022-12-05T08:25:03;35.47;;;14.57;;
46723;SDS011;32463;48.298;11.620;2022-12-05T08:27:30;33.42;;;14.60;;
46723;SDS011;32463;48.298;11.620;2022-12-05T08:29:57;38.33;;;15.15;;
46723;SDS011;32463;48.298;11.620;2022-12-05T08:32:23;36.38;;;15.05;;
46723;SDS011;32463;48.298;11.620;2022-12-05T08:34:51;40.83;;;15.15;;
46723;SDS011;32463;48.298;11.620;2022-12-05T08:37:17;43.65;;;16.90;;
46723;SDS011;32463;48.298;11.620;2022-12-05T08:39:44;37.10;;;16.45;;
46723;SDS011;32463;48.298;11.620;2022-12-05T08:42:10;44.35;;;15.95;;
46723;SDS011;32463;48.298;11.620;2022-12-05T08:44:36;37.08;;;14.73;;
46723;SDS011;32463;48.298;11.620;2022-12-05T08:47:03;37.25;;;14.38;;
46723;SDS011;32463;48.298;11.620;2022-12-05T08:49:29;36.88;;;14.68;;
46723;SDS011;32463;48.298;11.620;2022-12-05T08:51:56;36.28;;;14.80;;
46723;SDS011;32463;48.298;11.620;2022-12-05T08:54:22;39.05;;;14.25;;
46723;SDS011;32463;48.298;11.620;2022-12-05T08:56:49;34.88;;;14.43;;
46723;SDS011;32463;48.298;11.620;2022-12-05T08:59:16;36.42;;;14.32;;
46723;SDS011;32463;48.298;11.620;2022-12-05T09:01:43;35.78;;;14.35;;
46723;SDS011;32463;48.298;11.620;2022-12-05T09:04:10;37.15;;;14.85;;
46723;SDS011;32463;48.298;11.620;2022-12-05T09:06:37;40.22;;;14.02;;
46723;SDS011;32463;48.298;11.620;2022-12-05T09:09:05;30.42;;;13.93;;
46723;SDS011;32463;48.298;11.620;2022-12-05T09:11:34;37.63;;;14.25;;
46723;SDS011;32463;48.298;11.620;2022-12-05T09:14:04;32.00;;;13.63;;
46723;SDS011;32463;48.298;11.620;2022-12-05T09:16:34;33.78;;;14.32;;
46723;SDS011;32463;48.298;11.620;2022-12-05T09:19:05;30.30;;;13.88;;
46723;SDS011;32463;48.298;11.620;2022-12-05T09:21:45;35.45;;;13.77;;
46723;SDS011;32463;48.298;11.620;2022-12-05T09:24:12;29.65;;;13.35;;
46723;SDS011;32463;48.298;11.620;2022-12-05T09:26:39;28.92;;;13.15;;
46723;SDS011;32463;48.298;11.620;2022-12-05T09:29:06;35.63;;;14.23;;
46723;SDS011;32463;48.298;11.620;2022-12-05T09:31:33;30.40;;;13.65;;
46723;SDS011;32463;48.298;11.620;2022-12-05T09:34:01;31.95;;;13.88;;
46723;SDS011;32463;48.298;11.620;2022-12-05T09:36:28;30.27;;;13.65;;
46723;SDS011;32463;48.298;11.620;2022-12-05T09:39:00;31.75;;;14.18;;
46723;SDS011;32463;48.298;11.620;2022-12-05T09:47:10;26.08;;;13.35;;
46723;SDS011;32463;48.298;11.620;2022-12-05T09:49:39;31.70;;;14.00;;
46723;SDS011;32463;48.298;11.620;2022-12-05T09:52:21;37.35;;;14.90;;
46723;SDS011;32463;48.298;11.620;2022-12-05T09:54:52;36.10;;;14.90;;
46723;SDS011;32463;48.298;11.620;2022-12-05T09:57:23;35.83;;;15.48;;
46723;SDS011;32463;48.298;11.620;2022-12-05T09:59:58;27.92;;;14.73;;
46723;SDS011;32463;48.298;11.620;2022-12-05T10:05:21;29.90;;;14.73;;
46723;SDS011;32463;48.298;11.620;2022-12-05T10:10:47;27.63;;;14.50;;
46723;SDS011;32463;48.298;11.620;2022-12-05T10:14:21;28.80;;;14.80;;
46723;SDS011;32463;48.298;11.620;2022-12-05T10:16:29;27.77;;;14.27;;
46723;SDS011;32463;48.298;11.620;2022-12-05T10:19:02;27.25;;;13.43;;
46723;SDS011;32463;48.298;11.620;2022-12-05T10:21:58;30.65;;;15.10;;
46723;SDS011;32463;48.298;11.620;2022-12-05T10:24:32;27.70;;;13.90;;
46723;SDS011;32463;48.298;11.620;2022-12-05T10:27:05;30.50;;;15.30;;
46723;SDS011;32463;48.298;11.620;2022-12-05T10:29:43;26.88;;;14.20;;
46723;SDS011;32463;48.298;11.620;2022-12-05T10:32:20;27.45;;;13.75;;
46723;SDS011;32463;48.298;11.620;2022-12-05T10:34:50;29.58;;;14.27;;
46723;SDS011;32463;48.298;11.620;2022-12-05T10:37:25;30.58;;;14.52;;
46723;SDS011;32463;48.298;11.620;2022-12-05T10:39:55;28.92;;;14.15;;
46723;SDS011;32463;48.298;11.620;2022-12-05T10:42:31;24.80;;;12.73;;
46723;SDS011;32463;48.298;11.620;2022-12-05T10:45:02;23.50;;;13.23;;
46723;SDS011;32463;48.298;11.620;2022-12-05T10:47:31;26.35;;;14.38;;
46723;SDS011;32463;48.298;11.620;2022-12-05T10:50:00;28.17;;;13.75;;
46723;SDS011;32463;48.298;11.620;2022-12-05T10:52:33;24.30;;;13.70;;
46723;SDS011;32463;48.298;11.620;2022-12-05T10:55:02;24.42;;;12.57;;
46723;SDS011;32463;48.298;11.620;2022-12-05T10:57:30;29.23;;;14.52;;
46723;SDS011;32463;48.298;11.620;2022-12-05T10:59:57;26.20;;;14.10;;
46723;SDS011;32463;48.298;11.620;2022-12-05T11:02:34;24.23;;;13.70;;
46723;SDS011;32463;48.298;11.620;2022-12-05T11:05:02;27.02;;;14.07;;
46723;SDS011;32463;48.298;11.620;2022-12-05T11:09:56;25.42;;;13.15;;
46723;SDS011;32463;48.298;11.620;2022-12-05T11:12:36;26.00;;;13.07;;
46723;SDS011;32463;48.298;11.620;2022-12-05T11:15:05;25.40;;;14.35;;
46723;SDS011;32463;48.298;11.620;2022-12-05T11:17:48;27.05;;;13.60;;
46723;SDS011;32463;48.298;11.620;2022-12-05T11:22:45;25.80;;;13.60;;
46723;SDS011;32463;48.298;11.620;2022-12-05T11:27:49;24.98;;;13.30;;
46723;SDS011;32463;48.298;11.620;2022-12-05T11:30:20;22.45;;;12.98;;
46723;SDS011;32463;48.298;11.620;2022-12-05T11:32:48;26.02;;;12.93;;
46723;SDS011;32463;48.298;11.620;2022-12-05T11:40:24;24.05;;;12.80;;
46723;SDS011;32463;48.298;11.620;2022-12-05T11:56:51;20.55;;;11.80;;
46723;SDS011;32463;48.298;11.620;2022-12-05T11:59:23;21.55;;;11.65;;
46723;SDS011;32463;48.298;11.620;2022-12-05T12:04:49;22.00;;;12.93;;
46723;SDS011;32463;48.298;11.620;2022-12-05T12:09:58;23.90;;;13.38;;
46723;SDS011;32463;48.298;11.620;2022-12-05T12:28:00;20.30;;;11.57;;
46723;SDS011;32463;48.298;11.620;2022-12-05T12:38:57;21.98;;;12.20;;
46723;SDS011;32463;48.298;11.620;2022-12-05T12:50:20;22.63;;;12.00;;
46723;SDS011;32463;48.298;11.620;2022-12-05T12:58:46;23.13;;;12.00;;
46723;SDS011;32463;48.298;11.620;2022-12-05T13:03:46;23.58;;;12.23;;
46723;SDS011;32463;48.298;11.620;2022-12-05T13:06:42;22.60;;;12.35;;
46723;SDS011;32463;48.298;11.620;2022-12-05T13:09:23;25.98;;;13.45;;
46723;SDS011;32463;48.298;11.620;2022-12-05T13:11:56;23.05;;;13.48;;
46723;SDS011;32463;48.298;11.620;2022-12-05T13:14:29;20.55;;;11.95;;
46723;SDS011;32463;48.298;11.620;2022-12-05T13:16:59;22.13;;;11.85;;
46723;SDS011;32463;48.298;11.620;2022-12-05T13:21:56;23.02;;;12.85;;
46723;SDS011;32463;48.298;11.620;2022-12-05T13:24:26;25.33;;;13.70;;
46723;SDS011;32463;48.298;11.620;2022-12-05T13:26:56;22.77;;;12.50;;
46723;SDS011;32463;48.298;11.620;2022-12-05T13:29:28;19.10;;;11.27;;
46723;SDS011;32463;48.298;11.620;2022-12-05T13:32:00;20.50;;;11.13;;
46723;SDS011;32463;48.298;11.620;2022-12-05T13:37:31;19.30;;;11.07;;
46723;SDS011;32463;48.298;11.620;2022-12-05T13:40:18;17.13;;;10.15;;
46723;SDS011;32463;48.298;11.620;2022-12-05T13:43:09;21.08;;;11.38;;
46723;SDS011;32463;48.298;11.620;2022-12-05T13:45:37;21.75;;;11.32;;
46723;SDS011;32463;48.298;11.620;2022-12-05T13:48:09;21.60;;;10.77;;
46723;SDS011;32463;48.298;11.620;2022-12-05T13:50:53;18.98;;;10.25;;
46723;SDS011;32463;48.298;11.620;2022-12-05T13:58:42;13.10;;;7.88;;
46723;SDS011;32463;48.298;11.620;2022-12-05T14:09:49;14.50;;;8.48;;
46723;SDS011;32463;48.298;11.620;2022-12-05T14:17:29;16.02;;;8.02;;
46723;SDS011;32463;48.298;11.620;2022-12-05T14:25:44;14.07;;;8.45;;
46723;SDS011;32463;48.298;11.620;2022-12-05T14:33:29;11.25;;;7.18;;
46723;SDS011;32463;48.298;11.620;2022-12-05T14:35:55;12.98;;;7.25;;
46723;SDS011;32463;48.298;11.620;2022-12-05T14:38:32;12.57;;;6.78;;
46723;SDS011;32463;48.298;11.620;2022-12-05T14:44:01;10.68;;;6.53;;
46723;SDS011;32463;48.298;11.620;2022-12-05T14:46:29;11.65;;;7.03;;
46723;SDS011;32463;48.298;11.620;2022-12-05T14:48:58;11.45;;;6.13;;
46723;SDS011;32463;48.298;11.620;2022-12-05T14:52:07;9.63;;;5.57;;
46723;SDS011;32463;48.298;11.620;2022-12-05T14:54:37;10.50;;;5.95;;
46723;SDS011;32463;48.298;11.620;2022-12-05T14:57:10;10.35;;;6.03;;
46723;SDS011;32463;48.298;11.620;2022-12-05T14:59:50;13.15;;;6.20;;
46723;SDS011;32463;48.298;11.620;2022-12-05T15:02:26;10.32;;;6.85;;
46723;SDS011;32463;48.298;11.620;2022-12-05T15:05:16;10.70;;;6.68;;
46723;SDS011;32463;48.298;11.620;2022-12-05T15:07:49;10.82;;;6.28;;
46723;SDS011;32463;48.298;11.620;2022-12-05T15:15:44;13.48;;;6.88;;
46723;SDS011;32463;48.298;11.620;2022-12-05T15:18:29;11.80;;;7.00;;
46723;SDS011;32463;48.298;11.620;2022-12-05T15:21:08;13.38;;;6.85;;
46723;SDS011;32463;48.298;11.620;2022-12-05T15:26:15;16.60;;;8.93;;
46723;SDS011;32463;48.298;11.620;2022-12-05T15:28:55;13.52;;;8.32;;
46723;SDS011;32463;48.298;11.620;2022-12-05T15:31:32;12.80;;;7.80;;
46723;SDS011;32463;48.298;11.620;2022-12-05T15:34:17;11.98;;;8.18;;
46723;SDS011;32463;48.298;11.620;2022-12-05T15:36:49;11.43;;;7.32;;
46723;SDS011;32463;48.298;11.620;2022-12-05T15:39:25;13.32;;;7.60;;
46723;SDS011;32463;48.298;11.620;2022-12-05T15:41:52;13.70;;;8.98;;
46723;SDS011;32463;48.298;11.620;2022-12-05T15:44:20;14.95;;;9.13;;
46723;SDS011;32463;48.298;11.620;2022-12-05T15:46:52;11.13;;;7.25;;
46723;SDS011;32463;48.298;11.620;2022-12-05T15:49:24;14.77;;;8.20;;
46723;SDS011;32463;48.298;11.620;2022-12-05T15:52:02;13.82;;;8.50;;
46723;SDS011;32463;48.298;11.620;2022-12-05T15:54:40;15.40;;;8.60;;
46723;SDS011;32463;48.298;11.620;2022-12-05T15:57:14;14.55;;;8.48;;
46723;SDS011;32463;48.298;11.620;2022-12-05T15:59:47;14.43;;;9.02;;
46723;SDS011;32463;48.298;11.620;2022-12-05T16:02:23;16.45;;;9.15;;
46723;SDS011;32463;48.298;11.620;2022-12-05T16:04:57;57.13;;;32.05;;
46723;SDS011;32463;48.298;11.620;2022-12-05T16:07:26;36.10;;;18.73;;
46723;SDS011;32463;48.298;11.620;2022-12-05T16:09:57;13.25;;;8.15;;
46723;SDS011;32463;48.298;11.620;2022-12-05T16:12:26;13.40;;;8.23;;
46723;SDS011;32463;48.298;11.620;2022-12-05T16:14:57;11.52;;;7.82;;
46723;SDS011;32463;48.298;11.620;2022-12-05T16:17:29;12.77;;;7.75;;
46723;SDS011;32463;48.298;11.620;2022-12-05T16:20:11;10.82;;;7.15;;
46723;SDS011;32463;48.298;11.620;2022-12-05T16:22:48;10.60;;;7.07;;
46723;SDS011;32463;48.298;11.620;2022-12-05T16:25:21;11.82;;;7.72;;
46723;SDS011;32463;48.298;11.620;2022-12-05T16:27:56;11.95;;;7.82;;
46723;SDS011;32463;48.298;11.620;2022-12-05T16:30:24;11.55;;;7.97;;
46723;SDS011;32463;48.298;11.620;2022-12-05T16:33:01;12.43;;;7.93;;
46723;SDS011;32463;48.298;11.620;2022-12-05T16:35:43;13.07;;;8.43;;
46723;SDS011;32463;48.298;11.620;2022-12-05T16:43:22;12.73;;;8.07;;
46723;SDS011;32463;48.298;11.620;2022-12-05T16:45:54;9.95;;;6.90;;
46723;SDS011;32463;48.298;11.620;2022-12-05T16:48:24;11.57;;;7.38;;
46723;SDS011;32463;48.298;11.620;2022-12-05T16:53:51;14.15;;;8.20;;
46723;SDS011;32463;48.298;11.620;2022-12-05T16:56:25;15.07;;;8.15;;
46723;SDS011;32463;48.298;11.620;2022-12-05T16:58:55;16.48;;;8.90;;
46723;SDS011;32463;48.298;11.620;2022-12-05T17:01:23;15.43;;;9.32;;
46723;SDS011;32463;48.298;11.620;2022-12-05T17:03:52;14.43;;;9.32;;
46723;SDS011;32463;48.298;11.620;2022-12-05T17:06:20;13.55;;;9.27;;
46723;SDS011;32463;48.298;11.620;2022-12-05T17:08:49;15.02;;;9.05;;
46723;SDS011;32463;48.298;11.620;2022-12-05T17:11:24;15.63;;;9.88;;
46723;SDS011;32463;48.298;11.620;2022-12-05T17:13:53;14.82;;;9.30;;
46723;SDS011;32463;48.298;11.620;2022-12-05T17:16:21;16.80;;;10.70;;
46723;SDS011;32463;48.298;11.620;2022-12-05T17:18:50;14.93;;;10.27;;
46723;SDS011;32463;48.298;11.620;2022-12-05T17:21:18;18.25;;;10.35;;